createdAt,value
2022-11-19T00:02:55.382Z,85.84
2022-11-19T00:07:54.188Z,85.97
2022-11-19T00:12:57.004Z,85.06
2022-11-19T00:17:55.839Z,86.06
2022-11-19T00:22:55.569Z,85.77
2022-11-19T00:27:56.910Z,84.94
2022-11-19T00:32:57.335Z,85.28
2022-11-19T00:37:56.065Z,85.38
2022-11-19T00:43:09.943Z,85.77
2022-11-19T00:48:08.599Z,85.36
2022-11-19T00:53:07.325Z,86.16
2022-11-19T00:58:07.439Z,89.36
2022-11-19T01:03:06.730Z,89.55
2022-11-19T01:08:05.692Z,90.75
2022-11-19T01:13:22.109Z,90.39
2022-11-19T01:18:22.600Z,90.85
2022-11-19T01:23:21.547Z,90.73
2022-11-19T01:28:20.306Z,91.08
2022-11-19T01:33:19.543Z,93.12
2022-11-19T01:38:19.680Z,94.43
2022-11-19T01:43:18.503Z,96.19
2022-11-19T01:48:22.416Z,96.26
2022-11-19T01:53:25.115Z,96.83
2022-11-19T01:58:26.276Z,99.41
2022-11-19T02:03:26.455Z,99.11
2022-11-19T02:08:39.384Z,100.00
2022-11-19T02:13:44.018Z,100.00
2022-11-19T02:18:53.382Z,98.76
2022-11-19T02:24:11.194Z,97.46
2022-11-19T02:29:21.577Z,97.90
2022-11-19T02:34:28.982Z,95.95
2022-11-19T02:39:36.802Z,95.60
2022-11-19T02:44:57.388Z,95.00
2022-11-19T02:50:02.169Z,94.45
2022-11-19T02:55:00.887Z,93.44
2022-11-19T03:00:20.488Z,92.29
2022-11-19T03:05:23.232Z,90.47
2022-11-19T03:10:26.703Z,90.05
2022-11-19T03:15:52.953Z,89.08
2022-11-19T03:20:57.123Z,88.54
2022-11-19T03:26:02.547Z,87.80
2022-11-19T03:31:02.646Z,87.29
2022-11-19T03:36:09.364Z,87.08
2022-11-19T03:41:10.022Z,86.30
2022-11-19T03:46:15.716Z,86.24
2022-11-19T03:51:20.625Z,86.04
2022-11-19T03:56:24.336Z,85.84
2022-11-19T04:01:23.471Z,86.13
2022-11-19T04:06:23.581Z,86.10
2022-11-19T04:16:19.873Z,85.63
2022-11-19T04:21:18.608Z,84.88
2022-11-19T04:26:18.738Z,84.41
2022-11-19T04:31:18.158Z,84.90
2022-11-19T04:36:17.177Z,85.68
2022-11-19T04:41:15.928Z,85.81
2022-11-19T04:46:16.111Z,86.06
2022-11-19T04:51:14.814Z,84.79
2022-11-19T04:56:13.525Z,84.63
2022-11-19T05:01:12.265Z,83.58
2022-11-19T05:06:12.354Z,83.70
2022-11-19T05:11:11.106Z,82.97
2022-11-19T05:16:09.917Z,84.39
2022-11-19T05:21:08.779Z,85.61
2022-11-19T05:26:08.867Z,85.39
2022-11-19T05:31:07.786Z,85.38
2022-11-19T05:36:07.519Z,85.00
2022-11-19T05:41:06.464Z,85.24
2022-11-19T05:46:06.900Z,83.97
2022-11-19T05:51:05.734Z,83.12
2022-11-19T05:56:04.593Z,82.66
2022-11-19T06:01:04.635Z,82.75
2022-11-19T06:06:04.964Z,81.88
2022-11-19T06:11:04.452Z,81.60
2022-11-19T06:16:03.115Z,81.20
2022-11-19T06:21:01.792Z,80.48
2022-11-19T06:26:01.829Z,80.95
2022-11-19T06:31:00.604Z,81.87
2022-11-19T06:35:59.330Z,82.12
2022-11-19T06:40:58.008Z,82.63
2022-11-19T06:45:58.064Z,81.49
2022-11-19T06:50:57.572Z,80.19
2022-11-19T06:56:00.376Z,80.19
2022-11-19T07:01:00.657Z,81.42
2022-11-19T07:06:01.456Z,81.80
2022-11-19T07:11:00.311Z,82.20
2022-11-19T07:16:05.887Z,81.52
2022-11-19T07:21:08.121Z,81.39
2022-11-19T07:26:08.473Z,81.59
2022-11-19T07:31:10.395Z,81.42
2022-11-19T07:36:17.938Z,80.21
2022-11-19T07:41:35.501Z,80.09
2022-11-19T07:46:35.642Z,79.22
2022-11-19T07:51:34.374Z,78.71
2022-11-19T07:56:34.589Z,77.19
2022-11-19T08:01:33.343Z,76.27
2022-11-19T08:06:34.750Z,77.11
2022-11-19T08:11:33.652Z,75.42
2022-11-19T08:16:51.410Z,75.97
2022-11-19T08:21:51.956Z,75.85
2022-11-19T08:26:51.081Z,75.58
2022-11-19T08:31:51.102Z,74.38
2022-11-19T08:36:53.176Z,73.98
2022-11-19T08:42:09.446Z,72.85
2022-11-19T08:47:08.640Z,71.13
2022-11-19T08:52:11.516Z,68.46
2022-11-19T08:57:12.410Z,67.00
2022-11-19T09:02:12.018Z,65.75
2022-11-19T09:07:12.103Z,64.88
2022-11-19T09:12:11.464Z,63.42
2022-11-19T09:17:10.153Z,63.18
2022-11-19T09:22:08.910Z,64.28
2022-11-19T09:27:09.078Z,63.53
2022-11-19T09:32:09.251Z,63.74
2022-11-19T09:37:11.369Z,61.06
2022-11-19T09:42:24.821Z,60.23
2022-11-19T09:47:34.545Z,60.33
2022-11-19T09:52:37.772Z,61.20
2022-11-19T09:57:45.702Z,61.99
2022-11-19T10:02:44.551Z,61.90
2022-11-19T10:07:52.996Z,61.53
2022-11-19T10:13:12.896Z,59.82
2022-11-19T10:18:19.691Z,59.83
2022-11-19T10:23:21.056Z,57.19
2022-11-19T10:28:24.726Z,55.74
2022-11-19T10:33:30.852Z,54.30
2022-11-19T10:38:35.351Z,52.09
2022-11-19T10:43:41.816Z,49.51
2022-11-19T10:48:43.795Z,49.59
2022-11-19T10:53:43.075Z,48.91
2022-11-19T10:58:48.231Z,48.08
2022-11-19T11:03:50.757Z,46.50
2022-11-19T11:08:51.011Z,45.95
2022-11-19T11:14:09.373Z,45.18
2022-11-19T11:19:14.855Z,45.18
2022-11-19T11:24:15.435Z,43.49
2022-11-19T11:29:28.136Z,42.18
2022-11-19T11:34:32.346Z,43.30
2022-11-19T11:39:35.043Z,42.28
2022-11-19T11:44:39.189Z,41.26
2022-11-19T11:49:40.540Z,40.64
2022-11-19T11:54:54.465Z,39.67
2022-11-19T11:59:54.723Z,39.30
2022-11-19T12:04:54.873Z,39.53
2022-11-19T12:10:15.174Z,38.07
2022-11-19T12:15:23.487Z,38.46
2022-11-19T12:20:31.853Z,37.95
2022-11-19T12:25:37.874Z,37.95
2022-11-19T12:30:51.124Z,38.44
2022-11-19T12:35:58.359Z,38.85
2022-11-19T12:41:08.226Z,36.68
2022-11-19T12:46:19.377Z,37.78
2022-11-19T12:51:31.291Z,36.47
2022-11-19T12:56:36.692Z,37.17
2022-11-19T13:01:42.683Z,37.96
2022-11-19T13:06:48.021Z,38.47
2022-11-19T13:11:53.045Z,38.50
2022-11-19T13:16:57.786Z,39.62
2022-11-19T13:21:58.824Z,40.64
2022-11-19T13:27:03.503Z,40.97
2022-11-19T13:32:12.535Z,41.14
2022-11-19T13:37:16.957Z,41.90
2022-11-19T13:42:35.336Z,42.49
2022-11-19T13:47:43.418Z,43.39
2022-11-19T13:52:49.895Z,43.65
2022-11-19T13:57:50.488Z,43.64
2022-11-19T14:03:24.269Z,44.81
2022-11-19T14:08:41.660Z,44.88
2022-11-19T14:14:08.041Z,45.80
2022-11-19T14:19:31.704Z,46.01
2022-11-19T14:25:17.540Z,46.56
2022-11-19T14:30:19.288Z,46.67
2022-11-19T14:35:41.796Z,47.36
2022-11-19T14:40:43.930Z,47.73
2022-11-19T14:46:02.915Z,48.49
2022-11-19T14:51:07.575Z,48.93
2022-11-19T14:56:14.631Z,49.22
2022-11-19T15:01:21.046Z,49.58
2022-11-19T15:06:21.051Z,50.17
2022-11-19T15:11:21.787Z,50.01
2022-11-19T15:16:22.510Z,50.45
2022-11-19T15:21:34.593Z,50.93
2022-11-19T15:26:42.788Z,51.04
2022-11-19T15:32:01.470Z,51.21
2022-11-19T15:37:04.748Z,51.47
2022-11-19T15:42:12.838Z,51.88
2022-11-19T15:47:15.744Z,52.71
2022-11-19T15:52:21.593Z,52.95
2022-11-19T15:57:26.731Z,53.43
2022-11-19T16:02:34.320Z,54.09
2022-11-19T16:07:33.500Z,54.82
2022-11-19T16:12:51.308Z,55.18
2022-11-19T16:17:50.288Z,56.10
2022-11-19T16:22:54.033Z,56.33
2022-11-19T16:27:57.097Z,56.53
2022-11-19T16:32:59.780Z,58.01
2022-11-19T16:37:59.702Z,58.19
2022-11-19T16:43:03.154Z,58.89
2022-11-19T16:48:07.429Z,59.68
2022-11-19T16:53:08.014Z,65.69
2022-11-19T16:58:19.014Z,62.55
2022-11-19T17:03:29.718Z,62.55
2022-11-19T17:08:31.227Z,64.39
2022-11-19T17:13:34.076Z,67.84
2022-11-19T17:18:34.532Z,94.64
2022-11-19T17:23:47.493Z,98.93
2022-11-19T17:28:54.154Z,83.63
2022-11-19T17:33:55.866Z,63.20
2022-11-19T17:38:54.714Z,65.67
2022-11-19T17:44:15.794Z,66.16
2022-11-19T17:49:16.235Z,68.00
2022-11-19T17:54:15.950Z,68.67
2022-11-19T17:59:16.305Z,71.04
2022-11-19T18:04:15.072Z,73.42
2022-11-19T18:09:15.774Z,73.78
2022-11-19T18:14:17.896Z,74.79
2022-11-19T18:19:29.563Z,73.94
2022-11-19T18:24:28.334Z,73.89
2022-11-19T18:29:31.747Z,74.16
2022-11-19T18:34:30.606Z,74.31
2022-11-19T18:39:29.561Z,74.76
2022-11-19T18:44:35.545Z,74.59
2022-11-19T18:49:37.930Z,75.54
2022-11-19T18:54:37.579Z,76.37
2022-11-19T18:59:41.628Z,77.07
2022-11-19T19:04:40.500Z,76.85
2022-11-19T19:09:39.436Z,76.92
2022-11-19T19:14:38.882Z,76.50
2022-11-19T19:19:39.429Z,76.13
2022-11-19T19:24:38.656Z,76.03
2022-11-19T19:29:37.790Z,77.03
2022-11-19T19:34:37.333Z,77.55
2022-11-19T19:39:37.619Z,77.53
2022-11-19T19:44:37.109Z,78.08
2022-11-19T19:49:38.996Z,78.94
2022-11-19T19:54:40.999Z,79.77
2022-11-19T19:59:42.199Z,80.05
2022-11-19T20:04:40.971Z,80.05
2022-11-19T20:09:41.303Z,80.79
2022-11-19T20:14:40.153Z,81.27
2022-11-19T20:19:39.193Z,83.42
2022-11-19T20:24:38.072Z,83.28
2022-11-19T20:29:38.390Z,83.38
2022-11-19T20:34:37.488Z,83.79
2022-11-19T20:39:36.432Z,84.81
2022-11-19T20:44:35.237Z,85.43
2022-11-19T20:49:38.262Z,86.00
2022-11-19T20:54:37.180Z,86.28
2022-11-19T20:59:35.993Z,87.00
2022-11-19T21:04:37.772Z,87.97
2022-11-19T21:09:40.158Z,87.57
2022-11-19T21:14:41.181Z,88.04
2022-11-19T21:19:45.830Z,88.65
2022-11-19T21:24:46.012Z,90.98
2022-11-19T21:29:45.941Z,92.70
2022-11-19T21:34:46.239Z,92.28
2022-11-19T21:39:47.005Z,90.67
2022-11-19T21:44:50.830Z,93.53
2022-11-19T21:49:54.161Z,93.29
2022-11-19T21:54:54.200Z,92.96
2022-11-19T21:59:56.071Z,93.87
2022-11-19T22:04:57.916Z,94.33
2022-11-19T22:10:01.872Z,95.82
2022-11-19T22:15:01.087Z,94.52
2022-11-19T22:20:01.584Z,93.36
2022-11-19T22:25:04.316Z,93.63
2022-11-19T22:30:06.104Z,93.55
2022-11-19T22:35:07.793Z,92.68
2022-11-19T22:40:07.555Z,91.98
2022-11-19T22:45:07.289Z,94.72
2022-11-19T22:50:08.800Z,93.71
2022-11-19T22:55:08.795Z,92.59
2022-11-19T23:00:13.136Z,93.64
2022-11-19T23:05:13.333Z,93.01
2022-11-19T23:10:12.051Z,92.92
2022-11-19T23:15:11.440Z,94.94
2022-11-19T23:20:12.975Z,96.54
2022-11-19T23:25:11.733Z,96.75
2022-11-19T23:30:11.445Z,96.84
2022-11-19T23:35:10.432Z,96.96
2022-11-19T23:40:12.030Z,97.59
2022-11-19T23:45:12.002Z,97.89
2022-11-19T23:50:11.186Z,99.47
2022-11-19T23:55:12.095Z,99.27
